createdAt,value
2018-08-18T00:00:26.395Z,17.60
2018-08-18T00:02:56.104Z,14.23
2018-08-18T00:05:25.195Z,17.10
2018-08-18T00:07:54.310Z,15.50
2018-08-18T00:10:23.466Z,14.77
2018-08-18T00:12:52.724Z,15.50
2018-08-18T00:15:21.895Z,15.13
2018-08-18T00:17:51.056Z,16.47
2018-08-18T00:20:23.380Z,19.90
2018-08-18T00:22:52.743Z,21.70
2018-08-18T00:25:21.879Z,21.13
2018-08-18T00:27:51.043Z,23.03
2018-08-18T00:30:25.643Z,16.47
2018-08-18T00:32:54.960Z,17.03
2018-08-18T00:35:24.485Z,14.37
2018-08-18T00:37:53.684Z,19.57
2018-08-18T00:40:22.803Z,18.13
2018-08-18T00:42:51.882Z,19.90
2018-08-18T00:45:20.976Z,18.03
2018-08-18T00:47:50.973Z,18.43
2018-08-18T00:50:35.253Z,18.57
2018-08-18T00:53:05.896Z,12.83
2018-08-18T00:55:35.399Z,17.07
2018-08-18T00:58:05.186Z,12.50
2018-08-18T01:00:34.647Z,17.70
2018-08-18T01:03:03.763Z,15.17
2018-08-18T01:05:32.941Z,15.43
2018-08-18T01:08:02.190Z,13.03
2018-08-18T01:10:31.281Z,13.57
2018-08-18T01:13:00.489Z,18.57
2018-08-18T01:15:29.523Z,11.97
2018-08-18T01:17:58.664Z,12.63
2018-08-18T01:20:27.793Z,15.10
2018-08-18T01:22:59.915Z,12.57
2018-08-18T01:25:29.273Z,12.13
2018-08-18T01:27:59.384Z,14.60
2018-08-18T01:30:29.448Z,11.60
2018-08-18T01:32:58.559Z,11.60
2018-08-18T01:35:27.696Z,12.07
2018-08-18T01:37:56.906Z,18.27
2018-08-18T01:40:25.981Z,18.77
2018-08-18T01:42:55.042Z,14.30
2018-08-18T01:45:24.119Z,14.20
2018-08-18T01:47:53.196Z,14.90
2018-08-18T01:50:22.245Z,15.40
2018-08-18T01:52:51.305Z,18.10
2018-08-18T01:55:20.369Z,20.00
2018-08-18T01:57:49.612Z,17.53
2018-08-18T02:00:25.389Z,16.87
2018-08-18T02:02:54.747Z,17.90
2018-08-18T02:05:23.975Z,18.50
2018-08-18T02:07:53.116Z,16.20
2018-08-18T02:10:22.297Z,18.83
2018-08-18T02:13:00.888Z,18.53
2018-08-18T02:15:30.330Z,16.17
2018-08-18T02:17:59.447Z,19.00
2018-08-18T02:20:28.529Z,15.90
2018-08-18T02:22:57.635Z,16.20
2018-08-18T02:25:26.716Z,11.73
2018-08-18T02:27:55.865Z,15.17
2018-08-18T02:30:24.980Z,11.67
2018-08-18T02:32:54.093Z,19.40
2018-08-18T02:35:23.400Z,14.30
2018-08-18T02:37:52.644Z,12.80
2018-08-18T02:40:22.208Z,9.87
2018-08-18T02:42:51.285Z,9.47
2018-08-18T02:45:20.401Z,18.00
2018-08-18T02:48:04.178Z,11.97
2018-08-18T02:50:33.344Z,12.40
2018-08-18T02:53:07.155Z,13.63
2018-08-18T02:55:36.233Z,14.10
2018-08-18T02:58:05.344Z,14.93
2018-08-18T03:00:35.254Z,11.83
2018-08-18T03:03:04.508Z,17.77
2018-08-18T03:05:33.653Z,13.43
2018-08-18T03:08:02.780Z,14.67
2018-08-18T03:10:32.462Z,12.67
2018-08-18T03:13:01.548Z,16.40
2018-08-18T03:16:06.461Z,13.23
2018-08-18T03:18:43.420Z,16.23
2018-08-18T03:21:12.656Z,11.90
2018-08-18T03:23:53.436Z,12.60
2018-08-18T03:26:28.318Z,10.67
2018-08-18T03:28:57.693Z,11.17
2018-08-18T03:31:26.668Z,10.60
2018-08-18T03:33:55.761Z,10.90
2018-08-18T03:36:30.449Z,15.73
2018-08-18T03:39:00.088Z,10.43
2018-08-18T03:41:29.870Z,9.70
2018-08-18T03:43:58.992Z,11.27
2018-08-18T03:46:28.060Z,19.23
2018-08-18T03:48:57.159Z,8.87
2018-08-18T03:51:31.696Z,13.73
2018-08-18T03:54:01.834Z,15.27
2018-08-18T03:56:30.915Z,11.53
2018-08-18T03:59:00.195Z,9.20
2018-08-18T04:02:02.972Z,12.87
2018-08-18T04:04:37.288Z,17.93
2018-08-18T04:07:07.625Z,14.43
2018-08-18T04:09:38.091Z,9.70
2018-08-18T04:12:08.582Z,13.27
2018-08-18T04:14:40.333Z,11.60
2018-08-18T04:17:40.728Z,10.23
2018-08-18T04:20:10.032Z,10.90
2018-08-18T04:22:39.126Z,13.50
2018-08-18T04:25:08.979Z,10.17
2018-08-18T04:27:41.977Z,10.40
2018-08-18T04:30:13.388Z,9.43
2018-08-18T04:32:54.597Z,8.47
2018-08-18T04:35:25.054Z,9.70
2018-08-18T04:37:54.933Z,7.50
2018-08-18T04:40:24.504Z,8.70
2018-08-18T04:42:56.360Z,9.70
2018-08-18T04:45:25.747Z,10.67
2018-08-18T04:47:55.066Z,16.63
2018-08-18T04:50:24.220Z,8.47
2018-08-18T04:52:54.484Z,12.07
2018-08-18T04:55:23.686Z,8.40
2018-08-18T04:57:52.877Z,15.90
2018-08-18T05:00:22.114Z,6.47
2018-08-18T05:02:58.377Z,10.37
2018-08-18T05:05:32.037Z,7.70
2018-08-18T05:08:01.934Z,8.80
2018-08-18T05:10:31.039Z,8.27
2018-08-18T05:13:00.349Z,11.00
2018-08-18T05:15:29.549Z,5.33
2018-08-18T05:17:58.674Z,8.33
2018-08-18T05:20:28.215Z,6.70
2018-08-18T05:23:12.991Z,10.37
2018-08-18T05:25:42.327Z,9.87
2018-08-18T05:28:11.437Z,11.50
2018-08-18T05:30:40.540Z,6.10
2018-08-18T05:33:10.086Z,10.37
2018-08-18T05:35:39.187Z,7.40
2018-08-18T05:38:08.292Z,12.70
2018-08-18T05:40:37.404Z,10.47
2018-08-18T05:43:06.622Z,10.10
2018-08-18T05:45:35.753Z,6.43
2018-08-18T05:48:05.013Z,9.47
2018-08-18T05:50:34.083Z,10.50
2018-08-18T05:53:23.073Z,7.23
2018-08-18T05:55:52.425Z,11.17
2018-08-18T05:58:21.547Z,5.77
2018-08-18T06:00:55.129Z,5.67
2018-08-18T06:03:24.203Z,7.10
2018-08-18T06:05:53.366Z,15.73
2018-08-18T06:08:22.492Z,10.37
2018-08-18T06:10:51.664Z,7.30
2018-08-18T06:13:21.917Z,8.97
2018-08-18T06:16:06.500Z,10.43
2018-08-18T06:18:37.299Z,6.53
2018-08-18T06:21:07.399Z,9.93
2018-08-18T06:23:37.426Z,8.60
2018-08-18T06:26:06.960Z,8.70
2018-08-18T06:28:36.054Z,14.97
2018-08-18T06:31:05.212Z,12.57
2018-08-18T06:33:34.327Z,14.63
2018-08-18T06:36:03.828Z,9.50
2018-08-18T06:38:33.236Z,14.73
2018-08-18T06:41:03.155Z,6.73
2018-08-18T06:43:33.577Z,9.27
2018-08-18T06:46:03.172Z,9.20
2018-08-18T06:48:33.912Z,8.80
2018-08-18T06:51:03.208Z,7.50
2018-08-18T06:53:37.663Z,15.40
2018-08-18T06:56:07.453Z,10.33
2018-08-18T06:58:36.749Z,10.00
2018-08-18T07:01:06.652Z,7.50
2018-08-18T07:03:37.552Z,9.30
2018-08-18T07:06:07.476Z,8.60
2018-08-18T07:08:42.044Z,10.43
2018-08-18T07:11:11.870Z,9.80
2018-08-18T07:13:41.758Z,8.23
2018-08-18T07:16:10.869Z,6.70
2018-08-18T07:18:39.956Z,7.13
2018-08-18T07:21:09.135Z,10.53
2018-08-18T07:23:38.221Z,9.93
2018-08-18T07:26:07.696Z,8.57
2018-08-18T07:28:36.925Z,12.03
2018-08-18T07:31:06.173Z,6.63
2018-08-18T07:33:35.289Z,11.33
2018-08-18T07:36:04.428Z,8.47
2018-08-18T07:38:33.554Z,9.90
2018-08-18T07:41:02.695Z,6.53
2018-08-18T07:43:33.190Z,7.33
2018-08-18T07:46:04.039Z,10.63
2018-08-18T07:48:33.161Z,9.67
2018-08-18T07:51:02.394Z,8.73
2018-08-18T07:53:31.636Z,9.57
2018-08-18T07:56:00.756Z,7.50
2018-08-18T07:58:29.970Z,9.83
2018-08-18T08:00:59.820Z,8.60
2018-08-18T08:03:28.932Z,10.90
2018-08-18T08:05:57.984Z,13.40
2018-08-18T08:08:33.866Z,5.27
2018-08-18T08:11:17.925Z,10.00
2018-08-18T08:13:47.042Z,7.67
2018-08-18T08:16:16.149Z,5.63
2018-08-18T08:18:45.259Z,4.40
2018-08-18T08:21:14.404Z,8.87
2018-08-18T08:23:43.509Z,8.80
2018-08-18T08:26:12.633Z,8.00
2018-08-18T08:28:41.686Z,8.43
2018-08-18T08:31:10.817Z,9.83
2018-08-18T08:33:39.902Z,12.33
2018-08-18T08:36:12.362Z,6.03
2018-08-18T08:39:03.203Z,16.70
2018-08-18T08:41:33.177Z,8.00
2018-08-18T08:44:02.256Z,12.53
2018-08-18T08:46:31.330Z,9.90
2018-08-18T08:49:01.652Z,7.70
2018-08-18T08:51:30.784Z,9.00
2018-08-18T08:54:00.444Z,9.57
2018-08-18T08:56:35.227Z,9.10
2018-08-18T08:59:04.819Z,9.37
2018-08-18T09:01:34.388Z,6.10
2018-08-18T09:04:04.292Z,7.80
2018-08-18T09:06:35.082Z,10.30
2018-08-18T09:09:06.195Z,11.93
2018-08-18T09:11:35.236Z,6.03
2018-08-18T09:14:06.624Z,14.13
2018-08-18T09:16:35.718Z,9.37
2018-08-18T09:19:04.862Z,9.80
2018-08-18T09:21:40.425Z,13.77
2018-08-18T09:24:09.551Z,10.10
2018-08-18T09:26:44.159Z,6.87
2018-08-18T09:29:14.564Z,8.60
2018-08-18T09:31:44.636Z,9.67
2018-08-18T09:34:15.693Z,8.40
2018-08-18T09:36:46.045Z,8.80
2018-08-18T09:39:22.613Z,11.83
2018-08-18T09:41:52.004Z,8.23
2018-08-18T09:44:28.401Z,5.53
2018-08-18T09:46:58.214Z,9.50
2018-08-18T09:49:29.272Z,9.30
2018-08-18T09:51:59.415Z,10.70
2018-08-18T09:54:29.092Z,12.60
2018-08-18T09:56:58.967Z,9.63
2018-08-18T09:59:28.940Z,8.93
2018-08-18T10:01:58.321Z,14.63
2018-08-18T10:04:27.877Z,8.63
2018-08-18T10:06:57.163Z,9.40
2018-08-18T10:09:26.325Z,7.33
2018-08-18T10:11:55.600Z,12.23
2018-08-18T10:14:31.503Z,12.97
2018-08-18T10:17:00.966Z,8.23
2018-08-18T10:19:32.639Z,10.03
2018-08-18T10:22:02.399Z,15.63
2018-08-18T10:24:31.491Z,4.87
2018-08-18T10:27:05.264Z,15.53
2018-08-18T10:29:34.532Z,9.63
2018-08-18T10:32:03.731Z,7.20
2018-08-18T10:34:33.994Z,6.17
2018-08-18T10:37:06.207Z,8.70
2018-08-18T10:39:36.663Z,9.00
2018-08-18T10:42:08.574Z,9.63
2018-08-18T10:44:37.876Z,7.87
2018-08-18T10:47:11.608Z,8.73
2018-08-18T10:49:52.238Z,10.33
2018-08-18T10:52:33.884Z,8.90
2018-08-18T10:55:06.577Z,5.77
2018-08-18T10:57:48.095Z,7.53
2018-08-18T11:00:19.492Z,7.80
2018-08-18T11:02:50.072Z,6.60
2018-08-18T11:05:19.666Z,12.93
2018-08-18T11:07:55.752Z,4.20
2018-08-18T11:10:29.660Z,7.50
2018-08-18T11:12:59.057Z,4.97
2018-08-18T11:15:28.415Z,10.07
2018-08-18T11:17:58.008Z,5.80
2018-08-18T11:20:28.566Z,10.40
2018-08-18T11:23:02.303Z,3.90
2018-08-18T11:25:34.623Z,9.40
2018-08-18T11:28:04.141Z,6.97
2018-08-18T11:30:33.333Z,9.70
2018-08-18T11:33:02.956Z,7.53
2018-08-18T11:35:33.163Z,11.33
2018-08-18T11:38:08.868Z,3.53
2018-08-18T11:40:39.743Z,6.27
2018-08-18T11:43:10.522Z,5.23
2018-08-18T11:45:40.419Z,8.30
2018-08-18T11:48:21.232Z,6.57
2018-08-18T11:50:51.402Z,5.17
2018-08-18T11:53:20.480Z,8.47
2018-08-18T11:55:49.704Z,9.30
2018-08-18T11:58:20.951Z,4.00
2018-08-18T12:00:52.735Z,4.83
2018-08-18T12:03:24.336Z,14.17
2018-08-18T12:05:54.558Z,5.30
2018-08-18T12:08:29.145Z,7.20
2018-08-18T12:10:59.919Z,7.00
2018-08-18T12:13:34.604Z,9.30
2018-08-18T12:16:08.376Z,5.60
2018-08-18T12:18:39.791Z,6.50
2018-08-18T12:21:09.226Z,4.43
2018-08-18T12:23:39.568Z,9.07
2018-08-18T12:26:11.889Z,13.83
2018-08-18T12:28:46.403Z,10.27
2018-08-18T12:31:17.169Z,4.80
2018-08-18T12:33:47.106Z,5.30
2018-08-18T12:36:16.278Z,4.30
2018-08-18T12:38:47.023Z,3.80
2018-08-18T12:41:16.193Z,2.60
2018-08-18T12:43:54.340Z,5.07
2018-08-18T12:46:28.553Z,3.53
2018-08-18T12:48:57.839Z,4.37
2018-08-18T12:51:26.896Z,8.73
2018-08-18T12:53:57.285Z,5.03
2018-08-18T12:56:27.662Z,4.43
2018-08-18T12:58:56.849Z,3.43
2018-08-18T13:01:45.097Z,3.00
2018-08-18T13:04:15.886Z,5.63
2018-08-18T13:06:46.360Z,5.00
2018-08-18T13:09:16.957Z,3.53
2018-08-18T13:11:47.343Z,5.73
2018-08-18T13:14:17.797Z,4.60
2018-08-18T13:16:47.053Z,4.57
2018-08-18T13:19:18.441Z,6.63
2018-08-18T13:21:47.596Z,6.03
2018-08-18T13:24:16.804Z,3.07
2018-08-18T13:26:45.780Z,5.77
2018-08-18T13:29:14.921Z,3.43
2018-08-18T13:31:44.676Z,2.80
2018-08-18T13:34:14.985Z,2.70
2018-08-18T13:36:45.132Z,2.90
2018-08-18T13:39:22.055Z,2.30
2018-08-18T13:41:51.236Z,2.60
2018-08-18T13:44:27.429Z,5.87
2018-08-18T13:46:56.574Z,3.10
2018-08-18T13:49:26.502Z,5.97
2018-08-18T13:51:55.605Z,4.83
2018-08-18T13:54:24.688Z,3.43
2018-08-18T13:56:53.747Z,3.73
2018-08-18T13:59:38.668Z,4.00
2018-08-18T14:02:08.398Z,2.77
2018-08-18T14:04:40.088Z,4.57
2018-08-18T14:07:09.766Z,2.43
2018-08-18T14:09:41.599Z,3.47
2018-08-18T14:12:17.849Z,2.70
2018-08-18T14:14:48.080Z,3.23
2018-08-18T14:17:19.276Z,3.63
2018-08-18T14:19:48.949Z,7.53
2018-08-18T14:22:18.731Z,3.07
2018-08-18T14:24:47.807Z,3.40
2018-08-18T14:27:19.091Z,3.10
2018-08-18T14:29:48.128Z,2.40
2018-08-18T14:32:25.364Z,2.90
2018-08-18T14:35:07.080Z,10.30
2018-08-18T14:37:40.547Z,5.10
2018-08-18T14:40:11.845Z,3.77
2018-08-18T14:42:41.002Z,3.20
2018-08-18T14:45:13.784Z,4.33
2018-08-18T14:47:42.947Z,3.43
2018-08-18T14:50:17.825Z,2.70
2018-08-18T14:52:46.932Z,8.00
2018-08-18T14:55:16.583Z,1.50
2018-08-18T14:58:02.358Z,1.23
2018-08-18T15:00:32.109Z,5.10
2018-08-18T15:03:01.372Z,6.53
2018-08-18T15:05:30.474Z,3.63
2018-08-18T15:07:59.976Z,2.00
2018-08-18T15:10:37.753Z,3.30
2018-08-18T15:13:07.696Z,1.90
2018-08-18T15:15:37.138Z,3.50
2018-08-18T15:18:08.958Z,3.63
2018-08-18T15:20:39.217Z,2.67
2018-08-18T15:23:09.331Z,4.23
2018-08-18T15:25:39.407Z,2.20
2018-08-18T15:28:09.736Z,4.10
2018-08-18T15:30:41.340Z,9.20
2018-08-18T15:33:11.343Z,1.97
2018-08-18T15:35:40.995Z,3.60
2018-08-18T15:38:10.776Z,1.90
2018-08-18T15:40:40.037Z,5.90
2018-08-18T15:43:09.176Z,2.20
2018-08-18T15:46:00.364Z,1.60
2018-08-18T15:48:29.752Z,3.27
2018-08-18T15:50:58.971Z,4.47
2018-08-18T15:53:57.524Z,3.33
2018-08-18T15:56:27.612Z,6.27
2018-08-18T15:58:57.559Z,2.20
2018-08-18T16:01:29.148Z,8.97
2018-08-18T16:03:59.742Z,4.20
2018-08-18T16:06:28.825Z,2.40
2018-08-18T16:08:57.920Z,4.23
2018-08-18T16:11:27.121Z,2.97
2018-08-18T16:13:56.262Z,2.43
2018-08-18T16:16:25.330Z,3.33
2018-08-18T16:19:00.669Z,2.10
2018-08-18T16:21:32.169Z,2.43
2018-08-18T16:24:02.310Z,4.30
2018-08-18T16:26:31.441Z,3.00
2018-08-18T16:29:00.564Z,2.57
2018-08-18T16:31:29.716Z,5.07
2018-08-18T16:33:58.800Z,2.70
2018-08-18T16:36:32.275Z,6.13
2018-08-18T16:39:07.992Z,2.50
2018-08-18T16:41:37.411Z,2.93
2018-08-18T16:44:06.493Z,4.40
2018-08-18T16:46:35.592Z,4.00
2018-08-18T16:49:04.668Z,3.77
2018-08-18T16:51:33.768Z,1.40
2018-08-18T16:54:18.205Z,2.57
2018-08-18T16:56:47.540Z,4.50
2018-08-18T16:59:16.632Z,2.87
2018-08-18T17:01:45.776Z,2.60
2018-08-18T17:04:23.076Z,4.73
2018-08-18T17:06:52.318Z,2.80
2018-08-18T17:09:33.782Z,4.37
2018-08-18T17:12:28.397Z,6.50
2018-08-18T17:14:57.490Z,2.30
2018-08-18T17:17:26.967Z,3.53
2018-08-18T17:19:56.047Z,3.43
2018-08-18T17:22:25.080Z,2.47
2018-08-18T17:24:54.162Z,3.37
2018-08-18T17:27:23.288Z,5.47
2018-08-18T17:29:53.064Z,3.03
2018-08-18T17:32:22.217Z,3.10
2018-08-18T17:34:51.320Z,2.67
2018-08-18T17:37:20.439Z,1.77
2018-08-18T17:39:49.701Z,2.13
2018-08-18T17:42:18.836Z,3.10
2018-08-18T17:44:47.927Z,1.83
2018-08-18T17:47:17.128Z,4.10
2018-08-18T17:49:52.159Z,3.00
2018-08-18T17:52:21.499Z,2.50
2018-08-18T17:55:04.706Z,4.00
2018-08-18T17:57:34.335Z,1.37
2018-08-18T18:00:09.242Z,9.80
2018-08-18T18:02:43.733Z,1.60
2018-08-18T18:05:12.876Z,6.00
2018-08-18T18:07:42.261Z,2.30
2018-08-18T18:10:11.316Z,2.60
2018-08-18T18:12:40.470Z,4.67
2018-08-18T18:15:46.095Z,2.27
2018-08-18T18:18:17.531Z,1.47
2018-08-18T18:20:47.989Z,4.07
2018-08-18T18:23:17.768Z,3.20
2018-08-18T18:25:46.777Z,6.10
2018-08-18T18:28:15.866Z,2.67
2018-08-18T18:30:44.976Z,3.00
2018-08-18T18:33:14.063Z,4.43
2018-08-18T18:35:43.139Z,1.77
2018-08-18T18:38:12.187Z,4.43
2018-08-18T18:40:42.600Z,5.23
2018-08-18T18:43:12.094Z,2.83
2018-08-18T18:45:41.289Z,7.40
2018-08-18T18:48:13.036Z,6.90
2018-08-18T18:50:44.929Z,1.20
2018-08-18T18:53:14.327Z,4.50
2018-08-18T18:55:51.840Z,2.33
2018-08-18T18:58:21.292Z,5.63
2018-08-18T19:01:06.259Z,6.73
2018-08-18T19:03:35.502Z,12.93
2018-08-18T19:06:04.616Z,3.97
2018-08-18T19:08:36.758Z,2.97
2018-08-18T19:11:05.825Z,5.13
2018-08-18T19:13:35.044Z,1.53
2018-08-18T19:16:04.210Z,5.30
2018-08-18T19:18:33.206Z,2.00
2018-08-18T19:21:02.244Z,2.80
2018-08-18T19:23:32.459Z,4.97
2018-08-18T19:26:01.543Z,6.23
2018-08-18T19:28:30.714Z,2.90
2018-08-18T19:30:59.810Z,2.50
2018-08-18T19:33:28.997Z,4.77
2018-08-18T19:35:58.198Z,3.17
2018-08-18T19:38:27.291Z,6.00
2018-08-18T19:40:56.591Z,9.73
2018-08-18T19:43:26.720Z,4.60
2018-08-18T19:45:56.548Z,11.40
2018-08-18T19:48:27.094Z,8.30
2018-08-18T19:51:01.679Z,5.87
2018-08-18T19:53:35.348Z,4.47
2018-08-18T19:56:08.508Z,7.27
2018-08-18T19:58:37.706Z,6.83
2018-08-18T20:01:06.927Z,7.70
2018-08-18T20:03:36.133Z,7.93
2018-08-18T20:06:09.447Z,4.70
2018-08-18T20:08:38.800Z,5.07
2018-08-18T20:11:07.902Z,6.27
2018-08-18T20:13:36.912Z,8.60
2018-08-18T20:16:06.404Z,8.63
2018-08-18T20:18:35.583Z,14.20
2018-08-18T20:21:04.543Z,7.00
2018-08-18T20:23:33.840Z,8.00
2018-08-18T20:26:02.896Z,5.17
2018-08-18T20:28:31.972Z,6.17
2018-08-18T20:31:01.058Z,5.20
2018-08-18T20:33:30.115Z,6.67
2018-08-18T20:36:00.203Z,5.80
2018-08-18T20:38:33.698Z,6.73
2018-08-18T20:41:02.767Z,10.30
2018-08-18T20:43:31.923Z,8.03
2018-08-18T20:46:01.092Z,7.83
2018-08-18T20:48:30.130Z,6.23
2018-08-18T20:50:59.210Z,9.37
2018-08-18T20:53:28.302Z,7.03
2018-08-18T20:55:59.135Z,6.63
2018-08-18T20:58:28.679Z,8.20
2018-08-18T21:00:57.791Z,9.50
2018-08-18T21:03:44.496Z,7.33
2018-08-18T21:06:14.276Z,5.03
2018-08-18T21:08:43.332Z,6.03
2018-08-18T21:11:12.403Z,11.47
2018-08-18T21:13:41.614Z,5.70
2018-08-18T21:16:10.797Z,7.60
2018-08-18T21:18:39.860Z,5.10
2018-08-18T21:21:43.233Z,5.57
2018-08-18T21:24:12.483Z,6.00
2018-08-18T21:26:41.540Z,6.57
2018-08-18T21:29:10.613Z,7.03
2018-08-18T21:31:40.064Z,6.20
2018-08-18T21:34:09.172Z,9.57
2018-08-18T21:36:38.247Z,4.60
2018-08-18T21:39:09.189Z,4.70
2018-08-18T21:41:40.126Z,14.60
2018-08-18T21:44:11.188Z,7.00
2018-08-18T21:46:40.857Z,9.70
2018-08-18T21:49:10.569Z,6.77
2018-08-18T21:51:39.658Z,8.03
2018-08-18T21:54:08.763Z,8.53
2018-08-18T21:56:39.281Z,6.07
2018-08-18T21:59:10.169Z,8.17
2018-08-18T22:01:39.291Z,5.17
2018-08-18T22:04:08.962Z,6.03
2018-08-18T22:06:38.057Z,4.97
2018-08-18T22:09:20.159Z,10.33
2018-08-18T22:11:49.350Z,5.83
2018-08-18T22:14:18.960Z,7.30
2018-08-18T22:16:53.367Z,7.50
2018-08-18T22:19:23.100Z,8.40
2018-08-18T22:21:52.295Z,10.57
2018-08-18T22:24:21.780Z,7.80
2018-08-18T22:26:51.106Z,5.20
2018-08-18T22:29:24.410Z,7.40
2018-08-18T22:31:53.663Z,8.00
2018-08-18T22:34:23.063Z,4.70
2018-08-18T22:36:56.084Z,6.70
2018-08-18T22:39:25.397Z,8.00
2018-08-18T22:41:54.525Z,7.63
2018-08-18T22:44:24.277Z,10.13
2018-08-18T22:46:53.772Z,4.97
2018-08-18T22:49:22.980Z,6.53
2018-08-18T22:51:52.080Z,7.37
2018-08-18T22:54:21.273Z,5.30
2018-08-18T22:56:55.708Z,12.33
2018-08-18T22:59:25.003Z,6.63
2018-08-18T23:01:54.102Z,3.03
2018-08-18T23:04:30.096Z,6.70
2018-08-18T23:06:59.939Z,5.50
2018-08-18T23:09:29.845Z,7.60
2018-08-18T23:11:59.817Z,8.93
2018-08-18T23:14:31.681Z,5.43
2018-08-18T23:17:01.230Z,4.77
2018-08-18T23:19:31.556Z,8.90
2018-08-18T23:22:01.065Z,7.10
2018-08-18T23:24:34.667Z,5.47
2018-08-18T23:27:04.044Z,7.00
2018-08-18T23:29:33.244Z,6.70
2018-08-18T23:32:16.192Z,3.97
2018-08-18T23:34:45.525Z,6.17
2018-08-18T23:37:20.030Z,4.10
2018-08-18T23:39:53.031Z,5.63
2018-08-18T23:42:23.644Z,7.60
2018-08-18T23:44:52.761Z,7.10
2018-08-18T23:47:22.479Z,11.83
2018-08-18T23:49:51.796Z,5.63
2018-08-18T23:52:21.040Z,5.00
2018-08-18T23:54:51.017Z,6.67
2018-08-18T23:57:20.171Z,6.37
2018-08-18T23:59:49.844Z,3.17
